createdAt,value
2019-03-31T00:01:48.053Z,7.34
2019-03-31T00:07:14.022Z,7.04
2019-03-31T00:12:38.283Z,7.08
2019-03-31T00:18:02.711Z,7.21
2019-03-31T00:23:27.984Z,7.54
2019-03-31T00:28:52.454Z,7.44
2019-03-31T00:34:17.706Z,7.43
2019-03-31T00:39:41.906Z,7.45
2019-03-31T00:45:07.911Z,7.54
2019-03-31T00:50:32.809Z,7.63
2019-03-31T00:55:58.031Z,7.50
2019-03-31T01:01:40.080Z,7.38
2019-03-31T01:07:09.095Z,7.27
2019-03-31T01:12:33.679Z,7.15
2019-03-31T01:18:01.218Z,7.05
2019-03-31T01:23:26.112Z,6.98
2019-03-31T01:28:53.113Z,6.96
2019-03-31T01:34:17.966Z,6.90
2019-03-31T01:39:42.242Z,6.87
2019-03-31T01:45:09.756Z,6.79
2019-03-31T01:50:34.413Z,6.95
2019-03-31T01:55:59.402Z,6.90
2019-03-31T02:01:24.692Z,7.04
2019-03-31T02:06:48.871Z,7.06
2019-03-31T02:12:13.445Z,7.33
2019-03-31T02:17:38.346Z,7.32
2019-03-31T02:23:04.002Z,7.54
2019-03-31T02:28:31.495Z,7.56
2019-03-31T02:33:57.272Z,7.51
2019-03-31T02:39:22.493Z,7.38
2019-03-31T02:44:47.434Z,7.46
2019-03-31T02:50:17.928Z,7.57
2019-03-31T02:55:44.390Z,7.57
2019-03-31T03:01:11.195Z,7.26
2019-03-31T03:06:37.446Z,7.09
2019-03-31T03:12:08.811Z,6.66
2019-03-31T03:17:34.109Z,6.69
2019-03-31T03:22:58.246Z,6.68
2019-03-31T03:28:23.302Z,6.57
2019-03-31T03:33:48.397Z,6.44
2019-03-31T03:39:12.828Z,6.43
2019-03-31T03:44:39.767Z,6.57
2019-03-31T03:50:05.744Z,6.43
2019-03-31T03:55:30.887Z,6.29
2019-03-31T04:00:55.411Z,6.25
2019-03-31T04:06:20.866Z,6.09
2019-03-31T04:11:45.063Z,6.14
2019-03-31T04:17:09.189Z,6.04
2019-03-31T04:22:33.299Z,6.03
2019-03-31T04:27:58.091Z,5.97
2019-03-31T04:33:22.417Z,6.05
2019-03-31T04:38:49.380Z,6.12
2019-03-31T04:44:14.582Z,6.21
2019-03-31T04:49:39.978Z,6.25
2019-03-31T04:55:04.667Z,6.28
2019-03-31T05:00:30.174Z,6.39
2019-03-31T05:05:54.257Z,6.35
2019-03-31T05:11:19.820Z,6.47
2019-03-31T05:16:45.103Z,6.62
2019-03-31T05:22:10.290Z,6.60
2019-03-31T05:27:34.809Z,6.82
2019-03-31T05:33:00.056Z,7.12
2019-03-31T05:38:25.322Z,7.44
2019-03-31T05:43:50.200Z,7.81
2019-03-31T05:49:14.705Z,8.28
2019-03-31T05:54:39.111Z,8.65
2019-03-31T06:00:06.824Z,8.87
2019-03-31T06:05:31.715Z,9.14
2019-03-31T06:10:56.634Z,9.30
2019-03-31T06:16:21.179Z,9.23
2019-03-31T06:21:45.631Z,8.87
2019-03-31T06:27:10.853Z,8.38
2019-03-31T06:32:35.490Z,8.10
2019-03-31T06:37:59.572Z,8.03
2019-03-31T06:43:23.962Z,8.13
2019-03-31T06:48:49.013Z,8.84
2019-03-31T06:54:14.311Z,10.42
2019-03-31T06:59:39.412Z,11.46
2019-03-31T07:05:05.378Z,12.28
2019-03-31T07:10:30.704Z,12.77
2019-03-31T07:15:55.712Z,13.21
2019-03-31T07:21:21.126Z,13.86
2019-03-31T07:26:45.650Z,14.18
2019-03-31T07:32:10.983Z,15.04
2019-03-31T07:37:46.674Z,15.30
2019-03-31T07:43:02.592Z,13.74
2019-03-31T07:48:26.948Z,13.59
2019-03-31T07:53:51.850Z,12.97
2019-03-31T07:59:17.318Z,12.52
2019-03-31T08:04:41.834Z,12.99
2019-03-31T08:10:08.478Z,12.81
2019-03-31T08:15:33.417Z,12.07
2019-03-31T08:20:57.850Z,11.61
2019-03-31T08:26:22.965Z,11.56
2019-03-31T08:31:47.870Z,11.68
2019-03-31T08:37:13.558Z,12.24
2019-03-31T08:42:37.789Z,11.44
2019-03-31T08:48:03.324Z,11.35
2019-03-31T08:53:29.062Z,11.07
2019-03-31T08:58:54.162Z,10.89
2019-03-31T09:04:18.355Z,11.45
2019-03-31T09:09:42.582Z,13.36
2019-03-31T09:15:09.280Z,12.28
2019-03-31T09:20:33.680Z,11.84
2019-03-31T09:25:58.217Z,11.58
2019-03-31T09:31:22.990Z,11.52
2019-03-31T09:36:48.114Z,11.71
2019-03-31T09:42:12.520Z,11.46
2019-03-31T09:47:38.339Z,11.00
2019-03-31T09:53:04.064Z,10.88
2019-03-31T09:58:28.700Z,10.61
2019-03-31T10:03:54.216Z,10.51
2019-03-31T10:09:19.283Z,10.16
2019-03-31T10:14:43.539Z,9.92
2019-03-31T10:20:09.077Z,9.79
2019-03-31T10:25:33.757Z,9.82
2019-03-31T10:30:58.440Z,10.27
2019-03-31T10:36:22.849Z,10.57
2019-03-31T10:41:48.677Z,11.04
2019-03-31T10:47:13.134Z,11.75
2019-03-31T10:52:38.482Z,12.56
2019-03-31T10:58:03.010Z,13.36
2019-03-31T11:03:28.151Z,13.61
2019-03-31T11:08:53.377Z,13.08
2019-03-31T11:14:18.238Z,13.16
2019-03-31T11:19:43.287Z,12.42
2019-03-31T11:25:20.264Z,12.58
2019-03-31T11:30:35.659Z,15.08
2019-03-31T11:36:00.934Z,16.96
2019-03-31T11:41:25.478Z,15.74
2019-03-31T11:46:50.808Z,14.68
2019-03-31T11:52:16.206Z,14.24
2019-03-31T11:57:40.889Z,14.88
2019-03-31T12:03:05.511Z,17.16
2019-03-31T12:08:30.568Z,17.19
2019-03-31T12:13:56.034Z,17.77
2019-03-31T12:19:21.443Z,18.26
2019-03-31T12:24:46.005Z,18.26
2019-03-31T12:30:11.258Z,17.64
2019-03-31T12:35:35.675Z,16.63
2019-03-31T12:41:00.308Z,18.56
2019-03-31T12:46:25.055Z,20.65
2019-03-31T12:51:50.406Z,21.09
2019-03-31T12:57:15.780Z,20.19
2019-03-31T13:02:40.038Z,19.16
2019-03-31T13:08:05.622Z,16.86
2019-03-31T13:13:30.530Z,16.86
2019-03-31T13:18:54.920Z,18.45
2019-03-31T13:24:18.967Z,20.23
2019-03-31T13:29:44.201Z,19.81
2019-03-31T13:35:09.680Z,19.69
2019-03-31T13:40:35.371Z,21.56
2019-03-31T13:46:00.296Z,21.50
2019-03-31T13:51:25.358Z,21.42
2019-03-31T13:56:50.714Z,19.78
2019-03-31T14:02:17.285Z,18.72
2019-03-31T14:07:42.018Z,18.64
2019-03-31T14:13:07.843Z,18.64
2019-03-31T14:18:32.853Z,17.84
2019-03-31T14:23:57.075Z,17.77
2019-03-31T14:29:21.367Z,17.59
2019-03-31T14:34:45.948Z,17.66
2019-03-31T14:40:10.302Z,18.03
2019-03-31T14:45:36.256Z,17.50
2019-03-31T14:51:01.161Z,18.03
2019-03-31T14:56:25.938Z,18.32
2019-03-31T15:01:51.332Z,19.76
2019-03-31T15:07:15.746Z,18.63
2019-03-31T15:12:40.707Z,17.14
2019-03-31T15:18:06.065Z,16.74
2019-03-31T15:23:30.955Z,16.81
2019-03-31T15:28:56.580Z,16.50
2019-03-31T15:34:21.403Z,16.16
2019-03-31T15:39:46.213Z,15.28
2019-03-31T15:45:11.905Z,15.14
2019-03-31T15:50:37.849Z,14.77
2019-03-31T15:56:02.067Z,15.16
2019-03-31T16:01:27.570Z,15.24
2019-03-31T16:06:52.898Z,14.63
2019-03-31T16:12:17.533Z,13.63
2019-03-31T16:17:42.265Z,13.05
2019-03-31T16:23:06.659Z,12.42
2019-03-31T16:28:31.646Z,11.88
2019-03-31T16:33:55.530Z,11.69
2019-03-31T16:39:19.390Z,12.24
2019-03-31T16:44:57.144Z,12.37
2019-03-31T16:50:09.386Z,11.98
2019-03-31T16:55:33.918Z,11.67
2019-03-31T17:00:57.497Z,11.54
2019-03-31T17:06:21.982Z,12.04
2019-03-31T17:11:46.511Z,12.09
2019-03-31T17:17:10.912Z,11.09
2019-03-31T17:22:34.805Z,10.49
2019-03-31T17:27:59.365Z,10.51
2019-03-31T17:33:23.870Z,9.88
2019-03-31T17:38:47.736Z,9.43
2019-03-31T17:44:11.387Z,9.12
2019-03-31T17:49:35.863Z,8.77
2019-03-31T17:55:00.591Z,8.58
2019-03-31T18:00:26.058Z,8.42
2019-03-31T18:05:50.591Z,8.27
2019-03-31T18:11:15.900Z,8.12
2019-03-31T18:16:40.552Z,7.92
2019-03-31T18:22:15.932Z,7.70
2019-03-31T18:27:30.435Z,7.59
2019-03-31T18:32:55.417Z,7.37
2019-03-31T18:38:21.009Z,7.19
2019-03-31T18:43:51.357Z,7.09
2019-03-31T18:49:11.000Z,7.09
2019-03-31T18:54:45.441Z,7.07
2019-03-31T19:00:28.180Z,7.00
2019-03-31T19:06:09.530Z,6.86
2019-03-31T19:11:40.340Z,6.87
2019-03-31T19:17:15.401Z,6.70
2019-03-31T19:23:17.151Z,6.54
2019-03-31T19:29:03.749Z,6.34
2019-03-31T19:34:47.383Z,6.18
2019-03-31T19:40:29.483Z,6.04
2019-03-31T19:46:18.591Z,6.02
2019-03-31T19:52:08.740Z,5.90
2019-03-31T19:58:00.615Z,5.78
2019-03-31T20:03:44.271Z,5.70
2019-03-31T20:09:14.860Z,5.55
2019-03-31T20:15:01.265Z,5.39
2019-03-31T20:20:33.775Z,5.22
2019-03-31T20:26:16.639Z,5.13
2019-03-31T20:31:46.964Z,4.97
2019-03-31T20:37:22.523Z,4.77
2019-03-31T20:43:13.270Z,4.57
2019-03-31T20:48:37.951Z,4.47
2019-03-31T20:54:01.970Z,4.54
2019-03-31T20:59:25.766Z,4.30
2019-03-31T21:04:50.878Z,4.14
2019-03-31T21:10:15.741Z,4.01
2019-03-31T21:15:41.023Z,4.04
2019-03-31T21:21:05.309Z,3.92
2019-03-31T21:26:29.150Z,3.91
2019-03-31T21:31:53.946Z,3.73
2019-03-31T21:37:18.659Z,3.39
2019-03-31T21:42:43.224Z,3.11
2019-03-31T21:48:08.071Z,3.16
2019-03-31T21:53:31.760Z,3.20
2019-03-31T21:58:56.245Z,3.16
2019-03-31T22:04:20.369Z,2.81
2019-03-31T22:09:44.515Z,2.57
2019-03-31T22:15:08.596Z,2.45
2019-03-31T22:20:33.162Z,2.31
2019-03-31T22:25:58.022Z,2.04
2019-03-31T22:31:22.329Z,1.87
2019-03-31T22:36:47.054Z,1.72
2019-03-31T22:42:11.540Z,1.63
2019-03-31T22:47:35.877Z,1.67
2019-03-31T22:53:01.448Z,1.58
2019-03-31T22:58:25.316Z,1.38
2019-03-31T23:03:49.967Z,1.30
2019-03-31T23:09:13.849Z,1.32
2019-03-31T23:14:37.944Z,1.28
2019-03-31T23:20:01.564Z,1.33
2019-03-31T23:25:26.262Z,1.31
2019-03-31T23:30:51.000Z,0.98
2019-03-31T23:36:15.486Z,0.62
2019-03-31T23:41:39.183Z,0.50
2019-03-31T23:47:02.921Z,0.53
2019-03-31T23:52:27.470Z,0.34
2019-03-31T23:57:51.357Z,0.11
